Time;durP1;ratioP1;P1;durP2;ratioP2;P2;SDS_P1;SDS_P2;PMS_P1;PMS_P2;Temp;Humidity;BMP_temperature;BMP_pressure;BME280_temperature;BME280_humidity;BME280_pressure;Samples;Min_cycle;Max_cycle;Signal;HPM_P1;HPM_P2
2021/12/13 00:01:58;;;;;;;26.02;12.98;;;;;;;;;;5051899;28;20025;-86
2021/12/13 00:04:34;;;;;;;26.52;13.07;;;;;;;;;;5051910;28;20037;-86
2021/12/13 00:07:06;;;;;;;23.33;12.38;;;;;;;;;;5052061;28;20100;-86
2021/12/13 00:09:33;;;;;;;28.17;14.02;;;;;;;;;;5053163;28;20419;-86
2021/12/13 00:12:00;;;;;;;30.27;14.35;;;;;;;;;;5059236;28;20102;-86
2021/12/13 00:14:33;;;;;;;24.98;12.85;;;;;;;;;;5053045;28;20017;-85
2021/12/13 00:17:04;;;;;;;28.98;13.50;;;;;;;;;;5052816;28;20017;-86
2021/12/13 00:19:44;;;;;;;29.53;14.27;;;;;;;;;;5051845;28;20025;-86
2021/12/13 00:22:14;;;;;;;32.58;14.23;;;;;;;;;;5057643;28;20082;-85
2021/12/13 00:24:41;;;;;;;26.98;12.98;;;;;;;;;;5051691;28;20017;-85
2021/12/13 00:27:08;;;;;;;31.05;13.93;;;;;;;;;;5051886;28;20032;-86
2021/12/13 00:29:49;;;;;;;30.70;14.32;;;;;;;;;;5052760;28;20033;-85
2021/12/13 00:32:23;;;;;;;31.65;13.95;;;;;;;;;;5052760;28;20032;-86
2021/12/13 00:34:50;;;;;;;35.22;14.55;;;;;;;;;;5052009;28;20500;-85
2021/12/13 00:37:18;;;;;;;33.28;14.13;;;;;;;;;;5071721;28;20392;-86
2021/12/13 00:39:47;;;;;;;31.20;13.77;;;;;;;;;;5059081;28;20024;-86
2021/12/13 00:42:12;;;;;;;32.40;14.10;;;;;;;;;;5051389;28;20028;-86
2021/12/13 00:44:46;;;;;;;32.97;12.93;;;;;;;;;;5051720;28;20032;-86
2021/12/13 00:47:22;;;;;;;27.88;13.40;;;;;;;;;;5051585;28;20064;-86
2021/12/13 00:49:50;;;;;;;33.78;14.13;;;;;;;;;;5051277;28;20380;-86
2021/12/13 00:52:16;;;;;;;30.92;13.68;;;;;;;;;;5051432;28;20036;-86
2021/12/13 00:54:42;;;;;;;32.72;14.57;;;;;;;;;;5052895;28;20047;-86
2021/12/13 00:57:11;;;;;;;35.50;14.30;;;;;;;;;;5052264;28;20029;-86
2021/12/13 00:59:41;;;;;;;29.40;13.77;;;;;;;;;;5051311;28;20075;-86
2021/12/13 01:02:08;;;;;;;29.65;13.27;;;;;;;;;;5051017;28;20032;-86
2021/12/13 01:04:51;;;;;;;29.05;13.45;;;;;;;;;;5052848;28;20037;-86
2021/12/13 01:07:34;;;;;;;31.55;13.73;;;;;;;;;;5060921;28;20025;-86
2021/12/13 01:10:18;;;;;;;32.50;14.38;;;;;;;;;;5056362;28;20020;-86
2021/12/13 01:12:45;;;;;;;31.85;13.25;;;;;;;;;;5057796;28;20028;-86
2021/12/13 01:15:15;;;;;;;30.83;13.40;;;;;;;;;;5056796;28;20065;-86
2021/12/13 01:17:50;;;;;;;31.90;13.30;;;;;;;;;;5055152;28;20028;-86
2021/12/13 01:20:24;;;;;;;31.70;13.27;;;;;;;;;;5035404;28;20025;-86
2021/12/13 01:22:54;;;;;;;29.48;14.52;;;;;;;;;;5052784;28;20025;-86
2021/12/13 01:28:10;;;;;;;32.55;13.10;;;;;;;;;;5056451;28;20028;-86
2021/12/13 01:30:42;;;;;;;29.88;13.05;;;;;;;;;;5056484;28;20036;-86
2021/12/13 01:33:08;;;;;;;31.30;14.00;;;;;;;;;;5035042;28;20538;-86
2021/12/13 01:35:36;;;;;;;31.95;13.70;;;;;;;;;;5035137;28;20497;-86
2021/12/13 01:38:05;;;;;;;36.28;14.07;;;;;;;;;;5043005;28;20070;-86
2021/12/13 01:40:32;;;;;;;31.10;14.15;;;;;;;;;;5054384;28;20020;-85
2021/12/13 01:43:11;;;;;;;27.23;13.38;;;;;;;;;;5054751;28;20053;-86
2021/12/13 01:45:38;;;;;;;32.60;13.70;;;;;;;;;;5055835;28;20104;-85
2021/12/13 01:48:04;;;;;;;27.80;12.60;;;;;;;;;;5054698;28;20111;-86
2021/12/13 01:50:41;;;;;;;27.77;13.68;;;;;;;;;;5054698;28;20024;-85
2021/12/13 01:53:07;;;;;;;28.67;12.25;;;;;;;;;;5054366;28;20106;-86
2021/12/13 01:55:36;;;;;;;27.83;12.40;;;;;;;;;;5066297;28;20025;-85
2021/12/13 01:58:35;;;;;;;27.95;12.43;;;;;;;;;;5074663;28;20016;-86
2021/12/13 02:01:18;;;;;;;26.25;11.23;;;;;;;;;;5071031;28;20024;-85
2021/12/13 02:03:43;;;;;;;31.50;11.95;;;;;;;;;;5053446;28;20032;-86
2021/12/13 02:06:09;;;;;;;24.45;10.95;;;;;;;;;;5054450;28;20063;-86
2021/12/13 02:08:35;;;;;;;25.83;11.48;;;;;;;;;;5053947;28;20362;-86
2021/12/13 02:11:00;;;;;;;23.20;10.90;;;;;;;;;;5057209;28;20063;-86
2021/12/13 02:13:36;;;;;;;22.92;10.40;;;;;;;;;;5053829;28;20028;-86
2021/12/13 02:18:48;;;;;;;27.85;10.98;;;;;;;;;;5056025;28;20091;-86
2021/12/13 02:21:22;;;;;;;22.40;10.50;;;;;;;;;;5055184;28;20504;-85
2021/12/13 02:23:49;;;;;;;25.30;10.32;;;;;;;;;;5053076;28;20066;-86
2021/12/13 02:26:15;;;;;;;22.63;10.55;;;;;;;;;;5054884;28;20016;-85
2021/12/13 02:28:42;;;;;;;27.05;10.73;;;;;;;;;;5054148;28;20027;-85
2021/12/13 02:31:11;;;;;;;26.50;11.45;;;;;;;;;;5053724;28;20017;-86
2021/12/13 02:33:39;;;;;;;22.38;10.55;;;;;;;;;;5053868;28;20431;-85
2021/12/13 02:36:15;;;;;;;23.23;10.73;;;;;;;;;;5053697;28;20035;-85
2021/12/13 02:38:42;;;;;;;23.00;10.95;;;;;;;;;;5055179;28;20025;-85
2021/12/13 02:41:08;;;;;;;32.10;10.95;;;;;;;;;;5064718;28;20031;-85
2021/12/13 02:43:35;;;;;;;23.30;10.70;;;;;;;;;;5073833;28;20021;-85
2021/12/13 02:46:01;;;;;;;21.23;10.48;;;;;;;;;;5072190;28;20036;-85
2021/12/13 02:48:37;;;;;;;22.10;10.80;;;;;;;;;;5054579;28;20457;-85
2021/12/13 02:51:11;;;;;;;24.58;10.60;;;;;;;;;;5053445;28;20020;-85
2021/12/13 02:53:43;;;;;;;25.43;12.03;;;;;;;;;;5053304;28;20020;-86
2021/12/13 02:56:08;;;;;;;;;;;;;;;;;;5053397;28;20048;-85
2021/12/13 02:58:35;;;;;;;19.40;9.68;;;;;;;;;;5070082;28;19951;-86
2021/12/13 03:01:03;;;;;;;23.92;10.15;;;;;;;;;;5086229;28;20270;-86
2021/12/13 03:03:32;;;;;;;21.40;10.23;;;;;;;;;;5054517;28;20025;-85
2021/12/13 03:05:58;;;;;;;21.08;10.60;;;;;;;;;;5052829;28;20028;-85
2021/12/13 03:08:27;;;;;;;26.17;10.40;;;;;;;;;;5054515;28;20029;-86
2021/12/13 03:10:59;;;;;;;26.25;11.07;;;;;;;;;;5053164;28;20044;-85
2021/12/13 03:13:24;;;;;;;26.35;9.88;;;;;;;;;;5054501;28;20053;-85
2021/12/13 03:15:54;;;;;;;22.75;10.80;;;;;;;;;;5056588;28;20067;-86
2021/12/13 03:18:22;;;;;;;23.63;10.35;;;;;;;;;;5069374;28;20023;-86
2021/12/13 03:21:19;;;;;;;24.15;9.75;;;;;;;;;;5073056;28;20380;-86
2021/12/13 03:24:00;;;;;;;22.73;9.82;;;;;;;;;;5061501;28;20029;-86
2021/12/13 03:26:29;;;;;;;24.15;10.27;;;;;;;;;;5066303;28;20104;-85
2021/12/13 03:28:57;;;;;;;19.17;9.60;;;;;;;;;;5032909;28;20025;-85
2021/12/13 03:31:26;;;;;;;23.25;10.32;;;;;;;;;;5065933;28;20446;-86
2021/12/13 03:33:51;;;;;;;24.10;9.65;;;;;;;;;;5032854;28;20026;-85
2021/12/13 03:36:19;;;;;;;22.88;9.90;;;;;;;;;;5066717;28;20014;-86
2021/12/13 03:38:47;;;;;;;26.50;9.43;;;;;;;;;;5033031;28;20048;-85
2021/12/13 03:41:15;;;;;;;24.67;9.27;;;;;;;;;;5034549;28;20083;-86
2021/12/13 03:43:46;;;;;;;20.95;9.23;;;;;;;;;;5072489;28;20029;-86
2021/12/13 03:46:13;;;;;;;22.27;9.20;;;;;;;;;;5068041;28;20409;-86
2021/12/13 03:48:39;;;;;;;19.27;9.50;;;;;;;;;;5052279;28;20384;-86
2021/12/13 03:51:07;;;;;;;17.83;8.90;;;;;;;;;;5053773;28;20524;-86
2021/12/13 03:53:33;;;;;;;19.70;8.25;;;;;;;;;;5052355;28;20116;-86
2021/12/13 03:56:04;;;;;;;23.05;8.90;;;;;;;;;;5051804;28;20029;-85
2021/12/13 03:58:32;;;;;;;18.50;8.88;;;;;;;;;;5098831;27;20017;-86
2021/12/13 04:01:06;;;;;;;19.48;8.52;;;;;;;;;;5085580;28;20031;-85
2021/12/13 04:03:32;;;;;;;21.17;8.32;;;;;;;;;;5052319;28;20059;-85
2021/12/13 04:05:58;;;;;;;22.38;8.35;;;;;;;;;;5051674;28;20494;-86
2021/12/13 04:08:23;;;;;;;19.23;9.00;;;;;;;;;;5051686;28;20033;-86
2021/12/13 04:10:54;;;;;;;20.20;8.43;;;;;;;;;;5054926;28;20427;-86
2021/12/13 04:13:21;;;;;;;18.30;8.82;;;;;;;;;;5057109;28;20060;-85
2021/12/13 04:16:03;;;;;;;22.70;8.10;;;;;;;;;;5052656;28;20044;-85
2021/12/13 04:19:06;;;;;;;14.50;7.82;;;;;;;;;;5051874;28;20017;-85
2021/12/13 04:21:16;;;;;;;18.98;8.93;;;;;;;;;;5053124;28;20025;-85
2021/12/13 04:23:49;;;;;;;21.15;8.35;;;;;;;;;;5052064;28;20021;-85
2021/12/13 04:26:14;;;;;;;19.08;8.10;;;;;;;;;;5051608;28;20039;-85
2021/12/13 04:28:41;;;;;;;15.35;7.53;;;;;;;;;;5085498;28;20020;-85
2021/12/13 04:31:09;;;;;;;15.82;8.00;;;;;;;;;;5084632;28;20477;-86
2021/12/13 04:33:42;;;;;;;17.23;7.38;;;;;;;;;;5051837;28;20028;-85
2021/12/13 04:36:28;;;;;;;20.13;7.80;;;;;;;;;;5053018;28;20051;-85
2021/12/13 04:38:57;;;;;;;17.35;7.55;;;;;;;;;;5051943;28;20029;-85
2021/12/13 04:41:25;;;;;;;13.75;7.10;;;;;;;;;;5051957;28;20380;-86
2021/12/13 04:43:56;;;;;;;19.15;7.57;;;;;;;;;;5051195;28;20410;-86
2021/12/13 04:46:21;;;;;;;18.23;7.80;;;;;;;;;;5051042;28;20013;-86
2021/12/13 04:48:49;;;;;;;19.10;8.07;;;;;;;;;;5085320;28;20381;-86
2021/12/13 04:51:15;;;;;;;20.30;7.40;;;;;;;;;;5084866;28;20025;-86
2021/12/13 04:53:46;;;;;;;14.93;6.95;;;;;;;;;;5051427;28;20055;-86
2021/12/13 04:56:18;;;;;;;14.00;7.15;;;;;;;;;;5050703;28;20357;-86
2021/12/13 04:58:43;;;;;;;;;;;;;;;;;;5085439;28;20053;-85
2021/12/13 05:01:10;;;;;;;15.00;6.88;;;;;;;;;;5051111;28;19970;-85
2021/12/13 05:03:39;;;;;;;15.48;7.57;;;;;;;;;;5051032;28;20266;-86
2021/12/13 05:06:06;;;;;;;16.15;7.43;;;;;;;;;;5051433;28;20489;-86
2021/12/13 05:08:31;;;;;;;19.67;6.82;;;;;;;;;;5051510;28;20083;-86
2021/12/13 05:11:01;;;;;;;14.70;6.65;;;;;;;;;;5051121;28;20112;-85
2021/12/13 05:13:28;;;;;;;15.32;7.57;;;;;;;;;;5052396;28;20103;-86
2021/12/13 05:15:57;;;;;;;17.58;7.05;;;;;;;;;;5051159;28;20025;-86
2021/12/13 05:18:25;;;;;;;15.18;7.18;;;;;;;;;;5051098;28;20044;-86
2021/12/13 05:20:56;;;;;;;14.98;7.13;;;;;;;;;;5084906;28;20411;-85
2021/12/13 05:23:22;;;;;;;17.73;7.00;;;;;;;;;;5051464;28;20823;-86
2021/12/13 05:25:53;;;;;;;12.85;6.68;;;;;;;;;;5050903;28;20308;-85
2021/12/13 05:28:20;;;;;;;14.43;6.93;;;;;;;;;;5052640;28;20083;-85
2021/12/13 05:30:45;;;;;;;16.15;7.65;;;;;;;;;;5051183;28;20060;-85
2021/12/13 05:33:12;;;;;;;15.27;7.38;;;;;;;;;;5051347;28;20071;-86
2021/12/13 05:35:41;;;;;;;13.40;6.63;;;;;;;;;;5085093;28;20021;-85
2021/12/13 05:38:10;;;;;;;16.20;7.13;;;;;;;;;;5054809;28;20016;-86
2021/12/13 05:40:38;;;;;;;15.13;7.20;;;;;;;;;;5070938;28;20054;-85
2021/12/13 05:43:35;;;;;;;16.27;6.60;;;;;;;;;;5051682;28;20021;-86
2021/12/13 05:46:01;;;;;;;14.82;6.70;;;;;;;;;;5028530;28;20072;-85
2021/12/13 05:48:37;;;;;;;14.55;6.38;;;;;;;;;;5051045;28;20476;-85
2021/12/13 05:51:05;;;;;;;13.60;6.85;;;;;;;;;;5050858;28;20116;-86
2021/12/13 05:53:34;;;;;;;14.63;7.15;;;;;;;;;;5074849;28;20115;-86
2021/12/13 05:56:08;;;;;;;16.60;7.63;;;;;;;;;;5084110;28;20032;-86
2021/12/13 05:58:44;;;;;;;15.95;7.22;;;;;;;;;;5054713;28;20025;-86
2021/12/13 06:01:28;;;;;;;13.05;6.30;;;;;;;;;;5054201;28;20431;-85
2021/12/13 06:04:07;;;;;;;18.42;7.47;;;;;;;;;;5054425;28;20399;-86
2021/12/13 06:06:34;;;;;;;13.10;6.60;;;;;;;;;;5053942;28;20451;-85
2021/12/13 06:08:59;;;;;;;13.75;6.53;;;;;;;;;;5087845;28;20025;-86
2021/12/13 06:11:33;;;;;;;12.60;6.60;;;;;;;;;;5087102;28;20020;-86
2021/12/13 06:14:00;;;;;;;13.50;6.50;;;;;;;;;;5088284;28;20392;-86
2021/12/13 06:16:25;;;;;;;15.73;7.05;;;;;;;;;;5087074;28;20021;-86
2021/12/13 06:19:02;;;;;;;14.88;6.80;;;;;;;;;;5053908;28;20641;-85
2021/12/13 06:21:28;;;;;;;14.57;6.43;;;;;;;;;;5053640;28;20112;-86
2021/12/13 06:23:53;;;;;;;12.73;6.50;;;;;;;;;;5054171;28;20056;-85
2021/12/13 06:26:25;;;;;;;13.88;6.90;;;;;;;;;;5087195;28;20044;-86
2021/12/13 06:28:55;;;;;;;13.13;6.85;;;;;;;;;;5053737;28;20385;-85
2021/12/13 06:31:22;;;;;;;13.02;6.50;;;;;;;;;;5053644;28;20108;-85
2021/12/13 06:33:51;;;;;;;11.13;6.15;;;;;;;;;;5053944;28;20017;-86
2021/12/13 06:36:25;;;;;;;14.05;6.43;;;;;;;;;;5059324;28;20150;-85
2021/12/13 06:38:52;;;;;;;18.83;6.90;;;;;;;;;;5054946;28;20021;-85
2021/12/13 06:41:26;;;;;;;12.88;6.28;;;;;;;;;;5085996;28;20592;-86
2021/12/13 06:43:54;;;;;;;14.65;6.57;;;;;;;;;;5053726;28;20017;-86
2021/12/13 06:46:22;;;;;;;14.25;6.68;;;;;;;;;;5082365;28;20105;-86
2021/12/13 06:48:49;;;;;;;14.23;6.80;;;;;;;;;;5073036;28;20408;-86
2021/12/13 06:51:16;;;;;;;13.05;5.70;;;;;;;;;;5053400;28;20028;-86
2021/12/13 06:53:57;;;;;;;15.93;6.78;;;;;;;;;;5053228;28;20033;-85
2021/12/13 06:56:28;;;;;;;13.27;6.22;;;;;;;;;;5087144;28;20028;-85
2021/12/13 06:58:56;;;;;;;12.40;5.80;;;;;;;;;;5086211;28;20489;-85
2021/12/13 07:01:22;;;;;;;14.02;6.18;;;;;;;;;;5051417;28;20028;-86
2021/12/13 07:03:55;;;;;;;11.05;5.70;;;;;;;;;;5053064;28;20013;-86
2021/12/13 07:06:21;;;;;;;12.27;5.90;;;;;;;;;;5053062;28;20021;-86
2021/12/13 07:08:47;;;;;;;12.70;6.25;;;;;;;;;;5085894;28;20385;-85
2021/12/13 07:11:17;;;;;;;11.90;6.05;;;;;;;;;;5052058;28;20025;-85
2021/12/13 07:13:58;;;;;;;13.57;6.15;;;;;;;;;;5079278;28;20055;-86
2021/12/13 07:16:26;;;;;;;14.27;6.63;;;;;;;;;;5052402;28;20027;-85
2021/12/13 07:18:56;;;;;;;15.82;5.82;;;;;;;;;;5052559;28;20044;-86
2021/12/13 07:21:24;;;;;;;11.40;6.20;;;;;;;;;;5052418;28;20528;-86
2021/12/13 07:23:51;;;;;;;12.13;5.57;;;;;;;;;;5051565;28;20017;-85
2021/12/13 07:26:29;;;;;;;10.75;5.38;;;;;;;;;;5051910;28;20060;-86
2021/12/13 07:28:54;;;;;;;11.57;5.47;;;;;;;;;;5052460;28;20031;-85
2021/12/13 07:31:19;;;;;;;9.23;4.60;;;;;;;;;;5083607;28;20096;-85
2021/12/13 07:33:45;;;;;;;11.07;5.68;;;;;;;;;;5051670;28;20107;-86
2021/12/13 07:36:15;;;;;;;12.88;5.90;;;;;;;;;;5079317;28;20032;-85
2021/12/13 07:38:49;;;;;;;10.38;5.15;;;;;;;;;;5051929;28;20017;-86
2021/12/13 07:41:15;;;;;;;11.45;5.10;;;;;;;;;;5051606;28;20753;-86
2021/12/13 07:43:45;;;;;;;10.57;5.38;;;;;;;;;;5073661;28;20806;-86
2021/12/13 07:46:19;;;;;;;11.15;5.20;;;;;;;;;;5047233;28;20107;-86
2021/12/13 07:48:45;;;;;;;8.77;4.70;;;;;;;;;;5051673;28;20032;-85
2021/12/13 07:51:12;;;;;;;11.55;5.32;;;;;;;;;;5051797;28;20021;-86
2021/12/13 07:53:43;;;;;;;9.52;4.28;;;;;;;;;;5052274;28;20358;-85
2021/12/13 07:56:10;;;;;;;8.82;4.55;;;;;;;;;;5044634;28;20047;-86
2021/12/13 07:58:38;;;;;;;11.18;4.90;;;;;;;;;;5051224;28;20368;-86
2021/12/13 08:01:09;;;;;;;7.40;4.13;;;;;;;;;;5051523;28;20491;-85
2021/12/13 08:03:42;;;;;;;9.57;4.60;;;;;;;;;;5044673;28;20020;-86
2021/12/13 08:06:08;;;;;;;7.18;4.05;;;;;;;;;;5050670;28;20020;-86
2021/12/13 08:08:41;;;;;;;10.65;4.20;;;;;;;;;;5053160;28;20048;-85
2021/12/13 08:11:07;;;;;;;7.95;4.00;;;;;;;;;;5051474;28;20365;-85
2021/12/13 08:13:32;;;;;;;8.32;4.05;;;;;;;;;;5074977;28;20028;-86
2021/12/13 08:15:57;;;;;;;8.13;4.13;;;;;;;;;;5079411;28;20009;-86
2021/12/13 08:18:25;;;;;;;8.30;3.92;;;;;;;;;;5051610;28;20021;-85
2021/12/13 08:20:56;;;;;;;7.85;3.80;;;;;;;;;;5079738;28;20021;-85
2021/12/13 08:23:35;;;;;;;7.70;3.80;;;;;;;;;;5051716;28;20020;-86
2021/12/13 08:26:01;;;;;;;5.88;3.28;;;;;;;;;;5085123;28;20428;-85
2021/12/13 08:28:35;;;;;;;9.77;3.88;;;;;;;;;;5049973;28;20032;-85
2021/12/13 08:31:02;;;;;;;7.20;3.95;;;;;;;;;;5053114;28;20076;-85
2021/12/13 08:33:32;;;;;;;7.07;3.90;;;;;;;;;;5078210;28;20450;-85
2021/12/13 08:36:01;;;;;;;9.27;4.32;;;;;;;;;;5052166;28;20067;-85
2021/12/13 08:38:32;;;;;;;7.38;3.38;;;;;;;;;;5051523;28;20021;-84
2021/12/13 08:41:00;;;;;;;8.90;4.35;;;;;;;;;;5082623;28;20040;-84
2021/12/13 08:43:36;;;;;;;8.13;3.80;;;;;;;;;;5054763;28;20020;-83
2021/12/13 08:46:03;;;;;;;9.88;3.90;;;;;;;;;;5041403;28;20025;-84
2021/12/13 08:48:28;;;;;;;8.18;4.47;;;;;;;;;;5050068;28;20530;-83
2021/12/13 08:50:55;;;;;;;6.15;3.42;;;;;;;;;;5083201;28;20025;-83
2021/12/13 08:53:20;;;;;;;7.40;3.88;;;;;;;;;;5084095;28;20104;-84
2021/12/13 08:56:12;;;;;;;6.93;3.58;;;;;;;;;;5060979;28;20032;-83
2021/12/13 08:58:48;;;;;;;5.97;3.17;;;;;;;;;;5055751;28;20033;-83
2021/12/13 09:01:14;;;;;;;5.53;3.25;;;;;;;;;;5073560;28;20032;-83
2021/12/13 09:03:44;;;;;;;8.98;3.80;;;;;;;;;;5052223;28;20029;-83
2021/12/13 09:06:13;;;;;;;6.38;3.33;;;;;;;;;;5079226;28;21412;-83
2021/12/13 09:08:44;;;;;;;6.20;3.47;;;;;;;;;;5052558;28;20025;-82
2021/12/13 09:11:13;;;;;;;7.17;3.30;;;;;;;;;;5053262;28;20029;-83
2021/12/13 09:13:39;;;;;;;7.22;3.63;;;;;;;;;;5085188;28;20064;-82
2021/12/13 09:16:05;;;;;;;6.00;3.17;;;;;;;;;;5054323;28;20024;-83
2021/12/13 09:18:30;;;;;;;6.72;3.38;;;;;;;;;;5080068;28;20021;-83
2021/12/13 09:20:57;;;;;;;5.65;3.22;;;;;;;;;;5082144;28;20079;-83
2021/12/13 09:23:35;;;;;;;9.45;3.67;;;;;;;;;;5072955;28;20461;-83
2021/12/13 09:26:03;;;;;;;4.68;2.50;;;;;;;;;;5052796;28;20423;-83
2021/12/13 09:28:32;;;;;;;8.32;3.30;;;;;;;;;;5062486;28;20021;-83
2021/12/13 09:31:01;;;;;;;8.02;3.42;;;;;;;;;;5053200;28;20013;-83
2021/12/13 09:33:30;;;;;;;5.07;2.95;;;;;;;;;;5060622;28;20028;-83
2021/12/13 09:35:55;;;;;;;7.45;3.30;;;;;;;;;;5060755;28;20013;-82
2021/12/13 09:38:20;;;;;;;12.13;3.75;;;;;;;;;;5087305;28;20696;-84
2021/12/13 09:40:48;;;;;;;6.53;2.70;;;;;;;;;;5086727;28;20051;-87
2021/12/13 09:43:14;;;;;;;5.90;2.85;;;;;;;;;;5058782;28;20063;-86
2021/12/13 09:45:41;;;;;;;4.13;2.65;;;;;;;;;;5055264;28;20045;-85
2021/12/13 09:48:15;;;;;;;4.93;2.90;;;;;;;;;;5057215;28;20086;-85
2021/12/13 09:50:41;;;;;;;5.32;2.90;;;;;;;;;;5054685;28;20025;-85
2021/12/13 09:53:08;;;;;;;5.32;3.20;;;;;;;;;;5058442;28;20098;-85
2021/12/13 09:55:35;;;;;;;5.95;2.55;;;;;;;;;;5087608;28;20021;-85
2021/12/13 09:58:06;;;;;;;6.43;2.85;;;;;;;;;;5082077;28;20031;-84
2021/12/13 10:00:40;;;;;;;5.32;3.03;;;;;;;;;;5066985;28;20492;-85
2021/12/13 10:03:08;;;;;;;5.82;3.00;;;;;;;;;;5079758;28;20135;-85
2021/12/13 10:05:37;;;;;;;6.07;2.30;;;;;;;;;;5071798;28;20484;-86
2021/12/13 10:08:05;;;;;;;5.22;3.10;;;;;;;;;;5063865;28;20028;-84
2021/12/13 10:10:34;;;;;;;7.10;2.88;;;;;;;;;;5087859;28;20017;-84
2021/12/13 10:13:02;;;;;;;5.65;2.50;;;;;;;;;;5059383;28;20020;-84
2021/12/13 10:15:36;;;;;;;6.45;2.72;;;;;;;;;;5057365;28;20532;-85
2021/12/13 10:18:11;;;;;;;5.68;2.65;;;;;;;;;;5056850;28;20552;-86
2021/12/13 10:20:38;;;;;;;5.72;2.70;;;;;;;;;;5079692;28;20025;-85
2021/12/13 10:23:06;;;;;;;4.75;2.90;;;;;;;;;;5058788;28;20017;-86
2021/12/13 10:25:36;;;;;;;5.80;2.88;;;;;;;;;;5084791;28;20055;-84
2021/12/13 10:28:06;;;;;;;4.45;2.72;;;;;;;;;;5076820;28;20027;-85
2021/12/13 10:30:34;;;;;;;5.43;2.75;;;;;;;;;;5080101;28;20107;-85
2021/12/13 10:33:00;;;;;;;4.82;2.47;;;;;;;;;;5061272;28;20031;-85
2021/12/13 10:35:31;;;;;;;6.40;3.22;;;;;;;;;;5084674;28;20032;-85
2021/12/13 10:37:59;;;;;;;5.70;3.05;;;;;;;;;;5081297;28;20359;-85
2021/12/13 10:40:24;;;;;;;4.90;2.70;;;;;;;;;;5084187;28;20024;-85
2021/12/13 10:42:52;;;;;;;4.72;2.90;;;;;;;;;;5060851;28;20030;-85
2021/12/13 10:45:20;;;;;;;5.00;2.40;;;;;;;;;;5058346;28;20108;-85
2021/12/13 10:47:47;;;;;;;8.35;3.00;;;;;;;;;;5054660;28;20098;-85
2021/12/13 10:50:19;;;;;;;3.42;2.30;;;;;;;;;;5039537;28;20021;-85
2021/12/13 10:52:48;;;;;;;4.20;2.47;;;;;;;;;;5050152;28;20041;-85
2021/12/13 10:55:20;;;;;;;4.43;2.50;;;;;;;;;;5088814;28;20020;-85
2021/12/13 10:57:49;;;;;;;5.90;2.67;;;;;;;;;;5058515;28;20025;-84
2021/12/13 11:00:27;;;;;;;8.20;2.88;;;;;;;;;;5061505;28;20136;-85
2021/12/13 11:02:54;;;;;;;4.88;2.80;;;;;;;;;;5052752;28;20033;-85
2021/12/13 11:05:21;;;;;;;5.32;3.00;;;;;;;;;;5057511;28;20036;-84
2021/12/13 11:07:48;;;;;;;4.22;2.35;;;;;;;;;;5059339;28;20035;-85
2021/12/13 11:10:15;;;;;;;6.32;3.05;;;;;;;;;;5086722;28;20111;-84
2021/12/13 11:12:42;;;;;;;5.43;3.50;;;;;;;;;;5055021;28;20025;-85
2021/12/13 11:15:10;;;;;;;5.85;2.70;;;;;;;;;;5083804;28;20021;-85
2021/12/13 11:17:35;;;;;;;4.95;2.50;;;;;;;;;;5053032;28;20025;-85
2021/12/13 11:20:12;;;;;;;6.80;2.50;;;;;;;;;;5096382;28;20044;-85
2021/12/13 11:22:37;;;;;;;6.78;2.97;;;;;;;;;;5052731;28;20025;-84
2021/12/13 11:25:06;;;;;;;7.10;3.55;;;;;;;;;;5084966;28;20476;-85
2021/12/13 11:27:32;;;;;;;8.68;4.32;;;;;;;;;;5052291;28;20082;-85
2021/12/13 11:29:59;;;;;;;8.07;2.70;;;;;;;;;;5077507;28;20032;-85
2021/12/13 11:32:48;;;;;;;7.00;3.40;;;;;;;;;;5051267;28;20021;-85
2021/12/13 11:35:31;;;;;;;4.30;2.30;;;;;;;;;;5052560;28;20021;-85
2021/12/13 11:38:03;;;;;;;6.22;2.33;;;;;;;;;;5052348;28;20036;-85
2021/12/13 11:40:36;;;;;;;5.10;2.30;;;;;;;;;;5085392;28;20017;-85
2021/12/13 11:43:20;;;;;;;4.68;2.10;;;;;;;;;;5063253;28;20055;-85
2021/12/13 11:45:52;;;;;;;9.13;2.75;;;;;;;;;;5051607;28;20078;-86
2021/12/13 11:48:18;;;;;;;4.78;1.98;;;;;;;;;;5052334;28;20025;-86
2021/12/13 11:51:02;;;;;;;4.32;2.10;;;;;;;;;;5085705;28;20035;-86
2021/12/13 11:53:52;;;;;;;3.63;2.15;;;;;;;;;;5051131;28;20094;-86
2021/12/13 11:56:36;;;;;;;4.90;2.38;;;;;;;;;;5048495;28;20021;-86
2021/12/13 11:59:21;;;;;;;7.00;1.92;;;;;;;;;;5077466;28;20021;-85
2021/12/13 12:02:02;;;;;;;10.52;2.58;;;;;;;;;;5067505;28;20484;-86
2021/12/13 12:04:46;;;;;;;10.07;2.42;;;;;;;;;;5053067;28;20013;-86
2021/12/13 12:07:14;;;;;;;3.70;2.00;;;;;;;;;;5051206;28;20017;-86
2021/12/13 12:09:48;;;;;;;4.22;2.10;;;;;;;;;;5053685;28;20016;-86
2021/12/13 12:12:32;;;;;;;4.63;2.08;;;;;;;;;;5044667;28;20035;-86
2021/12/13 12:15:02;;;;;;;3.20;1.95;;;;;;;;;;5083119;28;20024;-85
2021/12/13 12:17:28;;;;;;;6.63;2.00;;;;;;;;;;5052047;28;20045;-85
2021/12/13 12:19:53;;;;;;;3.63;1.88;;;;;;;;;;5082073;28;20040;-86
2021/12/13 12:22:19;;;;;;;4.40;1.65;;;;;;;;;;5081287;28;20103;-86
2021/12/13 12:24:46;;;;;;;3.28;1.70;;;;;;;;;;5080227;28;20025;-86
2021/12/13 12:27:32;;;;;;;3.85;2.08;;;;;;;;;;5057205;28;20369;-86
2021/12/13 12:30:08;;;;;;;6.65;1.65;;;;;;;;;;5076518;28;20048;-86
2021/12/13 12:32:34;;;;;;;5.93;2.03;;;;;;;;;;5087921;28;20029;-86
2021/12/13 12:35:01;;;;;;;4.18;1.90;;;;;;;;;;5054480;28;20453;-87
2021/12/13 12:37:37;;;;;;;3.47;1.92;;;;;;;;;;5048468;28;20051;-86
2021/12/13 12:40:10;;;;;;;3.88;1.85;;;;;;;;;;5075495;28;20063;-86
2021/12/13 12:42:37;;;;;;;3.50;1.83;;;;;;;;;;5056795;28;20074;-86
2021/12/13 12:45:05;;;;;;;3.08;1.75;;;;;;;;;;5071471;28;20021;-86
2021/12/13 12:47:34;;;;;;;2.90;1.70;;;;;;;;;;5056577;28;20079;-87
2021/12/13 12:50:14;;;;;;;4.70;1.85;;;;;;;;;;5051618;28;20060;-87
2021/12/13 12:52:49;;;;;;;2.83;1.65;;;;;;;;;;5051538;28;20086;-86
2021/12/13 12:55:16;;;;;;;2.35;1.25;;;;;;;;;;5051209;28;20499;-87
2021/12/13 12:57:42;;;;;;;2.92;1.77;;;;;;;;;;5068191;28;20528;-87
2021/12/13 13:00:07;;;;;;;4.60;1.70;;;;;;;;;;5031757;28;20108;-86
2021/12/13 13:02:32;;;;;;;4.70;2.05;;;;;;;;;;5049151;28;20116;-87
2021/12/13 13:05:00;;;;;;;6.78;1.90;;;;;;;;;;5051722;28;20112;-86
2021/12/13 13:07:34;;;;;;;3.53;1.83;;;;;;;;;;5056805;28;20058;-86
2021/12/13 13:10:02;;;;;;;5.20;1.42;;;;;;;;;;5076937;28;20095;-86
2021/12/13 13:12:28;;;;;;;2.72;1.38;;;;;;;;;;5089221;28;20025;-87
2021/12/13 13:14:58;;;;;;;4.38;1.77;;;;;;;;;;5088949;28;20358;-87
2021/12/13 13:17:24;;;;;;;3.70;1.67;;;;;;;;;;5056405;28;20060;-87
2021/12/13 13:19:50;;;;;;;2.42;1.50;;;;;;;;;;5055579;28;20477;-87
2021/12/13 13:22:23;;;;;;;4.05;1.80;;;;;;;;;;5056733;28;20064;-86
2021/12/13 13:24:51;;;;;;;4.63;1.90;;;;;;;;;;5055448;28;20588;-86
2021/12/13 13:27:17;;;;;;;3.72;1.80;;;;;;;;;;5086753;28;20055;-87
2021/12/13 13:29:43;;;;;;;3.13;1.83;;;;;;;;;;5074328;28;20029;-86
2021/12/13 13:32:10;;;;;;;3.42;1.50;;;;;;;;;;5058303;28;20111;-86
2021/12/13 13:34:56;;;;;;;3.60;1.55;;;;;;;;;;5075249;28;20020;-87
2021/12/13 13:37:23;;;;;;;2.72;1.50;;;;;;;;;;5061524;28;20781;-86
2021/12/13 13:39:53;;;;;;;4.68;1.88;;;;;;;;;;5055187;28;20017;-86
2021/12/13 13:42:21;;;;;;;3.55;1.70;;;;;;;;;;5056993;28;20053;-87
2021/12/13 13:44:46;;;;;;;4.38;1.50;;;;;;;;;;5088187;28;20460;-87
2021/12/13 13:47:15;;;;;;;2.58;1.50;;;;;;;;;;5056251;28;20075;-86
2021/12/13 13:49:40;;;;;;;4.55;1.83;;;;;;;;;;5054952;28;20052;-86
2021/12/13 13:52:13;;;;;;;3.17;1.45;;;;;;;;;;5065227;28;20063;-86
2021/12/13 13:54:39;;;;;;;3.33;1.60;;;;;;;;;;5074804;28;20021;-86
2021/12/13 13:57:10;;;;;;;2.72;1.63;;;;;;;;;;5063002;28;20021;-86
2021/12/13 13:59:39;;;;;;;3.58;1.75;;;;;;;;;;5089005;28;20016;-86
2021/12/13 14:02:07;;;;;;;6.90;2.00;;;;;;;;;;5063655;28;20033;-86
2021/12/13 14:04:40;;;;;;;4.70;1.75;;;;;;;;;;5088166;28;20048;-86
2021/12/13 14:07:11;;;;;;;4.10;1.83;;;;;;;;;;5081520;28;20503;-86
2021/12/13 14:09:38;;;;;;;5.35;1.95;;;;;;;;;;5076275;28;20028;-86
2021/12/13 14:12:09;;;;;;;7.88;1.90;;;;;;;;;;5054101;28;20025;-87
2021/12/13 14:14:43;;;;;;;2.47;1.40;;;;;;;;;;5038223;28;20057;-86
2021/12/13 14:17:09;;;;;;;2.90;1.73;;;;;;;;;;5045727;28;20025;-87
2021/12/13 14:19:37;;;;;;;3.58;1.73;;;;;;;;;;5053026;28;20025;-87
2021/12/13 14:22:06;;;;;;;3.88;1.83;;;;;;;;;;5053834;28;20369;-87
2021/12/13 14:24:33;;;;;;;3.90;1.88;;;;;;;;;;5087339;28;20041;-87
2021/12/13 14:27:14;;;;;;;3.75;1.77;;;;;;;;;;5053411;28;20025;-87
2021/12/13 14:29:39;;;;;;;4.97;1.77;;;;;;;;;;5054540;28;20025;-87
2021/12/13 14:32:08;;;;;;;2.47;1.50;;;;;;;;;;5053514;28;20495;-88
2021/12/13 14:34:35;;;;;;;2.50;1.42;;;;;;;;;;5087593;28;20032;-87
2021/12/13 14:37:01;;;;;;;5.25;1.70;;;;;;;;;;5086524;28;20025;-87
2021/12/13 14:39:29;;;;;;;3.40;1.83;;;;;;;;;;5054602;28;20035;-87
2021/12/13 14:42:00;;;;;;;5.68;2.13;;;;;;;;;;5053847;28;20063;-86
2021/12/13 14:44:30;;;;;;;5.45;1.90;;;;;;;;;;5053402;28;20050;-87
2021/12/13 14:46:57;;;;;;;4.95;1.98;;;;;;;;;;5053638;28;20025;-87
2021/12/13 14:49:24;;;;;;;4.78;1.88;;;;;;;;;;5053938;28;20027;-87
2021/12/13 14:51:51;;;;;;;4.32;1.85;;;;;;;;;;5055744;28;20008;-86
2021/12/13 14:54:18;;;;;;;2.78;1.58;;;;;;;;;;5061670;28;20111;-87
2021/12/13 14:56:47;;;;;;;7.97;2.00;;;;;;;;;;5067785;28;20017;-86